Terminal Aerodrome Forecast
Issued by NWS

Home | Current Version | Previous Version | Graphics & Text | Print | Product List | Glossary On
Versions: 1 2 3 4 5 6 7 8 9 10 11 12 13 14 15 16 17 18 19 20
000
FTUS43 KMPX 262038 AAA
TAFRWF
TAF AMD
KRWF 262038Z 2621/2718 30012G20KT P6SM BKN035
      TEMPO 2621/2624 BKN025
     FM270200 32008KT P6SM SCT100
     FM270900 VRB03KT P6SM BKN100=

USA.gov is the U.S. government's official web portal to all federal, state and local government web resources and services.